createdAt,value
2023-05-06T00:00:54.891Z,0.38
2023-05-06T00:03:26.449Z,0.37
2023-05-06T00:05:58.222Z,0.31
2023-05-06T00:08:29.594Z,0.28
2023-05-06T00:11:00.962Z,0.25
2023-05-06T00:13:32.351Z,0.21
2023-05-06T00:16:03.757Z,0.20
2023-05-06T00:18:35.212Z,0.17
2023-05-06T00:21:06.839Z,0.14
2023-05-06T00:23:38.253Z,0.11
2023-05-06T00:26:11.366Z,0.07
2023-05-06T00:28:42.729Z,0.05
2023-05-06T00:31:14.125Z,-0.01
2023-05-06T00:33:45.505Z,-0.04
2023-05-06T00:36:17.526Z,-0.08
2023-05-06T00:38:48.911Z,-0.10
2023-05-06T00:41:20.453Z,-0.13
2023-05-06T00:43:51.872Z,-0.16
2023-05-06T00:46:23.370Z,-0.19
2023-05-06T00:48:55.992Z,-0.20
2023-05-06T00:51:28.110Z,-0.22
2023-05-06T00:53:59.953Z,-0.24
2023-05-06T00:56:31.482Z,-0.28
2023-05-06T00:59:03.593Z,-0.30
2023-05-06T01:01:35.131Z,-0.32
2023-05-06T01:04:08.885Z,-0.35
2023-05-06T01:06:41.799Z,-0.38
2023-05-06T01:09:15.286Z,-0.42
2023-05-06T01:11:47.501Z,-0.46
2023-05-06T01:14:21.804Z,-0.48
2023-05-06T01:16:57.484Z,-0.50
2023-05-06T01:19:34.622Z,-0.55
2023-05-06T01:22:06.934Z,-0.55
2023-05-06T01:24:39.344Z,-0.59
2023-05-06T01:27:11.688Z,-0.64
2023-05-06T01:29:43.928Z,-0.62
2023-05-06T01:32:29.647Z,-0.63
2023-05-06T01:35:03.617Z,-0.66
2023-05-06T01:37:37.009Z,-0.68
2023-05-06T01:40:09.770Z,-0.67
2023-05-06T01:42:42.149Z,-0.68
2023-05-06T01:45:15.173Z,-0.70
2023-05-06T01:47:47.408Z,-0.73
2023-05-06T01:50:19.173Z,-0.73
2023-05-06T01:52:58.774Z,-0.74
2023-05-06T01:55:30.150Z,-0.72
2023-05-06T01:58:01.625Z,-0.74
2023-05-06T02:00:34.094Z,-0.73
2023-05-06T02:03:05.794Z,-0.73
2023-05-06T02:05:37.778Z,-0.71
2023-05-06T02:08:10.671Z,-0.74
2023-05-06T02:10:42.592Z,-0.70
2023-05-06T02:13:14.731Z,-0.59
2023-05-06T02:15:46.673Z,-0.47
2023-05-06T02:18:20.417Z,-0.37
2023-05-06T02:20:51.769Z,-0.28
2023-05-06T02:23:23.945Z,-0.32
2023-05-06T02:25:58.085Z,-0.36
2023-05-06T02:28:35.453Z,-0.38
2023-05-06T02:31:12.698Z,-0.41
2023-05-06T02:33:48.674Z,-0.44
2023-05-06T02:36:20.160Z,-0.48
2023-05-06T02:38:51.836Z,-0.47
2023-05-06T02:41:23.294Z,-0.47
2023-05-06T02:43:56.391Z,-0.48
2023-05-06T02:46:33.156Z,-0.50
2023-05-06T02:49:08.280Z,-0.50
2023-05-06T02:51:39.748Z,-0.48
2023-05-06T02:54:11.300Z,-0.48
2023-05-06T02:56:43.396Z,-0.51
2023-05-06T02:59:14.764Z,-0.50
2023-05-06T03:01:46.262Z,-0.50
2023-05-06T03:04:17.814Z,-0.45
2023-05-06T03:06:49.187Z,-0.44
2023-05-06T03:09:20.651Z,-0.43
2023-05-06T03:11:52.031Z,-0.40
2023-05-06T03:14:24.025Z,-0.36
2023-05-06T03:16:55.526Z,-0.34
2023-05-06T03:19:27.099Z,-0.33
2023-05-06T03:21:58.551Z,-0.29
2023-05-06T03:24:30.601Z,-0.25
2023-05-06T03:27:02.077Z,-0.19
2023-05-06T03:29:33.639Z,-0.13
2023-05-06T03:32:05.833Z,-0.01
2023-05-06T03:34:38.861Z,0.16
2023-05-06T03:37:12.615Z,0.40
2023-05-06T03:39:46.006Z,0.52
2023-05-06T03:42:17.564Z,0.58
2023-05-06T03:44:49.544Z,0.61
2023-05-06T03:47:21.642Z,0.62
2023-05-06T03:49:53.676Z,0.71
2023-05-06T03:52:25.163Z,0.77
2023-05-06T03:54:56.630Z,0.73
2023-05-06T03:57:28.379Z,0.76
2023-05-06T03:59:59.974Z,0.95
2023-05-06T04:02:34.209Z,1.18
2023-05-06T04:05:07.657Z,1.42
2023-05-06T04:07:39.426Z,1.62
2023-05-06T04:10:11.640Z,1.81
2023-05-06T04:12:43.818Z,2.00
2023-05-06T04:15:15.933Z,2.21
2023-05-06T04:17:47.906Z,2.40
2023-05-06T04:20:20.415Z,2.57
2023-05-06T04:22:52.919Z,2.73
2023-05-06T04:25:24.818Z,2.52
2023-05-06T04:27:56.307Z,2.77
2023-05-06T04:30:28.375Z,2.85
2023-05-06T04:33:00.162Z,2.93
2023-05-06T04:35:31.930Z,2.89
2023-05-06T04:38:04.773Z,2.89
2023-05-06T04:40:38.737Z,3.06
2023-05-06T04:43:10.708Z,3.25
2023-05-06T04:45:46.131Z,3.40
2023-05-06T04:48:19.526Z,3.49
2023-05-06T04:50:51.498Z,3.61
2023-05-06T04:53:22.987Z,3.52
2023-05-06T04:55:55.922Z,3.22
2023-05-06T04:58:28.265Z,3.11
2023-05-06T05:01:00.681Z,3.07
2023-05-06T05:03:32.818Z,3.09
2023-05-06T05:06:05.541Z,3.12
2023-05-06T05:08:37.226Z,3.16
2023-05-06T05:11:08.665Z,3.16
2023-05-06T05:13:40.621Z,3.27
2023-05-06T05:16:12.126Z,3.30
2023-05-06T05:18:44.567Z,3.37
2023-05-06T05:21:18.104Z,3.61
2023-05-06T05:23:49.948Z,3.84
2023-05-06T05:26:23.146Z,3.96
2023-05-06T05:28:55.955Z,4.16
2023-05-06T05:31:27.894Z,4.37
2023-05-06T05:33:59.667Z,4.49
2023-05-06T05:36:31.719Z,4.60
2023-05-06T05:39:04.224Z,4.76
2023-05-06T05:41:36.901Z,4.78
2023-05-06T05:44:09.183Z,4.58
2023-05-06T05:46:42.207Z,4.38
2023-05-06T05:49:17.596Z,4.07
2023-05-06T05:51:51.201Z,3.84
2023-05-06T05:54:23.149Z,3.82
2023-05-06T05:56:54.521Z,4.03
2023-05-06T05:59:26.437Z,4.35
2023-05-06T06:01:59.572Z,4.74
2023-05-06T06:04:32.498Z,5.02
2023-05-06T06:07:04.588Z,5.00
2023-05-06T06:09:37.544Z,4.94
2023-05-06T06:12:09.126Z,4.98
2023-05-06T06:14:43.883Z,5.06
2023-05-06T06:17:16.611Z,5.07
2023-05-06T06:19:51.378Z,4.98
2023-05-06T06:22:22.756Z,4.70
2023-05-06T06:24:54.776Z,4.39
2023-05-06T06:27:26.316Z,4.35
2023-05-06T06:29:57.929Z,4.26
2023-05-06T06:32:29.438Z,4.24
2023-05-06T06:35:01.031Z,4.44
2023-05-06T06:37:32.855Z,4.83
2023-05-06T06:40:04.954Z,5.34
2023-05-06T06:42:36.181Z,5.82
2023-05-06T06:45:14.443Z,6.32
2023-05-06T06:47:45.884Z,6.65
2023-05-06T06:50:18.623Z,6.75
2023-05-06T06:52:50.189Z,6.83
2023-05-06T06:55:21.860Z,6.78
2023-05-06T06:57:53.704Z,6.74
2023-05-06T07:00:25.725Z,6.64
2023-05-06T07:02:57.251Z,6.45
2023-05-06T07:05:28.758Z,6.06
2023-05-06T07:08:00.283Z,5.71
2023-05-06T07:10:31.602Z,5.60
2023-05-06T07:13:02.992Z,5.81
2023-05-06T07:15:34.357Z,6.03
2023-05-06T07:18:06.058Z,6.19
2023-05-06T07:20:38.704Z,6.61
2023-05-06T07:23:10.383Z,7.11
2023-05-06T07:25:47.644Z,7.41
2023-05-06T07:28:18.996Z,7.53
2023-05-06T07:30:52.710Z,7.50
2023-05-06T07:33:24.569Z,7.65
2023-05-06T07:35:56.020Z,7.87
2023-05-06T07:38:28.876Z,8.10
2023-05-06T07:41:03.537Z,8.65
2023-05-06T07:43:35.510Z,9.07
2023-05-06T07:46:11.262Z,9.06
2023-05-06T07:48:43.228Z,9.00
2023-05-06T07:51:18.229Z,8.62
2023-05-06T07:53:52.024Z,8.52
2023-05-06T07:56:24.983Z,8.15
2023-05-06T07:58:56.523Z,8.07
2023-05-06T08:01:29.434Z,8.56
2023-05-06T08:04:01.498Z,8.88
2023-05-06T08:06:33.148Z,8.87
2023-05-06T08:09:19.924Z,8.50
2023-05-06T08:11:49.977Z,8.22
2023-05-06T08:14:25.836Z,8.04
2023-05-06T08:17:01.710Z,8.97
2023-05-06T08:19:33.499Z,11.14
2023-05-06T08:22:05.233Z,15.04
2023-05-06T08:24:38.910Z,15.23
2023-05-06T08:27:12.392Z,15.52
2023-05-06T08:29:43.789Z,15.46
2023-05-06T08:32:15.431Z,15.69
2023-05-06T08:34:47.942Z,14.60
2023-05-06T08:37:19.841Z,14.68
2023-05-06T08:39:51.458Z,16.09
2023-05-06T08:42:23.705Z,17.50
2023-05-06T08:44:56.899Z,18.43
2023-05-06T08:47:28.673Z,17.39
2023-05-06T08:50:00.340Z,16.18
2023-05-06T08:52:32.928Z,14.79
2023-05-06T08:55:07.026Z,13.58
2023-05-06T08:57:40.322Z,12.78
2023-05-06T09:00:14.694Z,11.84
2023-05-06T09:02:48.817Z,12.70
2023-05-06T09:05:20.491Z,11.78
2023-05-06T09:07:54.308Z,10.78
2023-05-06T09:10:25.776Z,9.96
2023-05-06T09:12:58.250Z,9.35
2023-05-06T09:15:32.058Z,9.17
2023-05-06T09:18:07.483Z,10.24
2023-05-06T09:20:41.052Z,10.55
2023-05-06T09:23:13.552Z,10.66
2023-05-06T09:25:46.163Z,10.44
2023-05-06T09:28:17.691Z,10.27
2023-05-06T09:30:51.873Z,10.36
2023-05-06T09:33:23.564Z,10.69
2023-05-06T09:35:55.191Z,12.45
2023-05-06T09:38:26.942Z,15.11
2023-05-06T09:40:58.340Z,15.53
2023-05-06T09:43:29.797Z,13.73
2023-05-06T09:46:02.109Z,12.12
2023-05-06T09:48:33.808Z,11.24
2023-05-06T09:51:07.228Z,11.98
2023-05-06T09:53:39.218Z,12.43
2023-05-06T09:56:10.949Z,14.38
2023-05-06T09:58:42.580Z,13.92
2023-05-06T10:01:19.169Z,14.17
2023-05-06T10:03:48.122Z,15.80
2023-05-06T10:06:20.751Z,17.56
2023-05-06T10:08:52.496Z,16.45
2023-05-06T10:11:26.547Z,16.70
2023-05-06T10:13:58.104Z,15.14
2023-05-06T10:16:32.726Z,13.42
2023-05-06T10:19:04.771Z,12.20
2023-05-06T10:21:40.512Z,11.60
2023-05-06T10:24:13.926Z,11.24
2023-05-06T10:26:48.122Z,11.09
2023-05-06T10:29:20.328Z,10.97
2023-05-06T10:31:53.496Z,10.93
2023-05-06T10:34:26.301Z,11.87
2023-05-06T10:36:59.630Z,15.91
2023-05-06T10:39:32.249Z,18.12
2023-05-06T10:42:05.359Z,19.77
2023-05-06T10:44:54.348Z,21.23
2023-05-06T10:47:26.113Z,20.17
2023-05-06T10:50:17.820Z,16.94
2023-05-06T10:52:49.984Z,14.35
2023-05-06T10:55:28.114Z,12.71
2023-05-06T10:58:01.301Z,12.13
2023-05-06T11:00:33.465Z,12.79
2023-05-06T11:03:06.525Z,15.70
2023-05-06T11:05:49.901Z,16.87
2023-05-06T11:08:25.869Z,16.37
2023-05-06T11:10:57.310Z,15.63
2023-05-06T11:13:29.652Z,17.36
2023-05-06T11:16:03.903Z,18.96
2023-05-06T11:18:47.983Z,19.44
2023-05-06T11:21:38.813Z,18.18
2023-05-06T11:24:13.927Z,16.24
2023-05-06T11:26:45.817Z,15.03
2023-05-06T11:29:18.158Z,14.12
2023-05-06T11:31:49.774Z,13.14
2023-05-06T11:34:27.027Z,11.98
2023-05-06T11:37:00.913Z,11.25
2023-05-06T11:39:38.751Z,11.30
2023-05-06T11:42:07.375Z,11.29
2023-05-06T11:44:41.219Z,10.72
2023-05-06T11:47:12.762Z,10.51
2023-05-06T11:49:47.705Z,10.29
2023-05-06T11:52:21.130Z,9.89
2023-05-06T11:54:53.894Z,9.42
2023-05-06T11:57:26.480Z,8.98
2023-05-06T11:59:58.001Z,8.86
2023-05-06T12:02:30.231Z,8.87
2023-05-06T12:05:04.713Z,8.92
2023-05-06T12:07:36.550Z,8.91
2023-05-06T12:10:09.607Z,9.17
2023-05-06T12:12:41.581Z,10.18
2023-05-06T12:15:16.865Z,10.97
2023-05-06T12:17:50.078Z,11.17
2023-05-06T12:20:23.077Z,10.85
2023-05-06T12:23:07.535Z,10.66
2023-05-06T12:25:39.743Z,10.47
2023-05-06T12:28:21.025Z,9.92
2023-05-06T12:30:52.453Z,9.61
2023-05-06T12:33:24.319Z,9.74
2023-05-06T12:35:58.360Z,9.77
2023-05-06T12:38:31.570Z,9.60
2023-05-06T12:41:07.055Z,9.43
2023-05-06T12:43:42.983Z,9.73
2023-05-06T12:46:16.290Z,9.90
2023-05-06T12:49:02.464Z,9.84
2023-05-06T12:51:33.914Z,9.74
2023-05-06T12:54:06.976Z,9.60
2023-05-06T12:56:46.346Z,9.72
2023-05-06T12:59:21.283Z,10.35
2023-05-06T13:01:52.840Z,12.31
2023-05-06T13:04:24.471Z,13.86
2023-05-06T13:06:58.155Z,13.34
2023-05-06T13:09:29.929Z,12.02
2023-05-06T13:12:02.748Z,10.70
2023-05-06T13:14:34.703Z,10.02
2023-05-06T13:17:07.277Z,9.74
2023-05-06T13:19:38.836Z,9.85
2023-05-06T13:22:10.307Z,9.99
2023-05-06T13:24:43.573Z,9.97
2023-05-06T13:27:20.381Z,10.00
2023-05-06T13:30:02.488Z,9.70
2023-05-06T13:32:41.579Z,9.40
2023-05-06T13:35:23.117Z,9.48
2023-05-06T13:38:12.976Z,9.48
2023-05-06T13:40:40.795Z,9.37
2023-05-06T13:44:16.574Z,9.44
2023-05-06T13:46:46.467Z,9.42
2023-05-06T13:49:19.973Z,9.22
2023-05-06T13:51:57.884Z,9.04
2023-05-06T13:54:50.498Z,8.85
2023-05-06T13:57:25.598Z,8.74
2023-05-06T13:59:57.467Z,9.28
2023-05-06T14:02:29.487Z,9.62
2023-05-06T14:05:04.051Z,11.11
2023-05-06T14:07:37.467Z,11.01
2023-05-06T14:10:12.437Z,10.33
2023-05-06T14:12:47.730Z,9.76
2023-05-06T14:15:20.125Z,9.24
2023-05-06T14:17:54.843Z,8.81
2023-05-06T14:20:29.761Z,8.47
2023-05-06T14:23:01.690Z,8.23
2023-05-06T14:25:33.928Z,7.99
2023-05-06T14:28:05.947Z,7.91
2023-05-06T14:30:38.176Z,7.94
2023-05-06T14:33:10.078Z,7.98
2023-05-06T14:35:42.871Z,8.04
2023-05-06T14:38:15.001Z,8.11
2023-05-06T14:40:48.159Z,8.18
2023-05-06T14:43:21.684Z,8.21
2023-05-06T14:45:53.357Z,8.33
2023-05-06T14:48:25.591Z,8.56
2023-05-06T14:51:03.112Z,8.73
2023-05-06T14:53:34.763Z,8.75
2023-05-06T14:56:13.731Z,8.73
2023-05-06T14:58:44.438Z,8.67
2023-05-06T15:01:17.822Z,8.65
2023-05-06T15:03:50.999Z,8.60
2023-05-06T15:06:22.757Z,8.58
2023-05-06T15:08:54.492Z,8.51
2023-05-06T15:11:26.173Z,8.79
2023-05-06T15:14:00.111Z,9.45
2023-05-06T15:16:31.980Z,9.57
2023-05-06T15:19:34.451Z,9.56
2023-05-06T15:22:22.536Z,9.75
2023-05-06T15:25:16.672Z,10.54
2023-05-06T15:27:42.379Z,11.26
2023-05-06T15:34:27.709Z,11.45
2023-05-06T15:37:03.349Z,10.47
2023-05-06T15:39:38.298Z,10.03
2023-05-06T15:42:11.124Z,9.72
2023-05-06T15:44:42.808Z,9.90
2023-05-06T15:47:14.804Z,9.61
2023-05-06T15:49:52.784Z,9.11
2023-05-06T15:52:19.900Z,8.53
2023-05-06T15:54:51.649Z,8.06
2023-05-06T15:57:25.629Z,7.74
2023-05-06T15:59:59.601Z,7.36
2023-05-06T16:02:32.911Z,6.97
2023-05-06T16:05:05.055Z,6.68
2023-05-06T16:07:36.155Z,6.43
2023-05-06T16:10:09.111Z,6.27
2023-05-06T16:12:41.005Z,6.14
2023-05-06T16:15:13.484Z,6.03
2023-05-06T16:17:46.600Z,5.89
2023-05-06T16:20:18.194Z,5.85
2023-05-06T16:22:53.860Z,5.89
2023-05-06T16:25:25.155Z,5.95
2023-05-06T16:27:57.120Z,6.16
2023-05-06T16:30:28.555Z,6.36
2023-05-06T16:33:19.702Z,6.51
2023-05-06T16:35:51.328Z,6.49
2023-05-06T16:38:27.663Z,6.24
2023-05-06T16:41:00.444Z,6.07
2023-05-06T16:43:32.003Z,5.88
2023-05-06T16:46:07.997Z,5.63
2023-05-06T16:48:40.688Z,5.53
2023-05-06T16:51:18.497Z,5.51
2023-05-06T16:53:57.325Z,5.40
2023-05-06T16:56:43.598Z,5.30
2023-05-06T16:59:04.363Z,5.23
2023-05-06T17:01:45.653Z,5.12
2023-05-06T17:04:17.734Z,4.99
2023-05-06T17:14:34.092Z,4.96
2023-05-06T17:42:15.212Z,4.26
2023-05-06T17:44:48.912Z,4.08
2023-05-06T17:47:22.125Z,3.98
2023-05-06T17:49:56.594Z,3.90
2023-05-06T17:52:31.665Z,3.86
2023-05-06T17:55:15.521Z,3.88
2023-05-06T17:57:40.591Z,3.86
2023-05-06T18:00:17.198Z,3.86
2023-05-06T18:02:48.839Z,3.82
2023-05-06T18:05:21.889Z,3.75
2023-05-06T18:07:53.746Z,3.70
2023-05-06T18:10:30.937Z,3.66
2023-05-06T18:13:14.784Z,3.58
2023-05-06T18:16:12.887Z,3.54
2023-05-06T18:18:57.556Z,3.48
2023-05-06T18:21:46.341Z,3.43
2023-05-06T18:24:20.891Z,3.37
2023-05-06T18:26:55.104Z,3.22
2023-05-06T18:29:32.474Z,3.28
2023-05-06T18:32:24.886Z,3.23
2023-05-06T18:35:01.173Z,3.19
2023-05-06T18:37:33.810Z,3.15
2023-05-06T18:40:20.455Z,3.12
2023-05-06T18:42:53.498Z,3.07
2023-05-06T18:45:27.633Z,3.03
2023-05-06T18:55:07.841Z,3.03
2023-05-06T18:57:55.517Z,2.84
2023-05-06T19:09:59.837Z,2.71
2023-05-06T19:12:35.605Z,2.57
2023-05-06T19:15:12.185Z,2.55
2023-05-06T19:17:48.929Z,2.51
2023-05-06T19:20:20.695Z,2.45
2023-05-06T19:22:54.484Z,2.40
2023-05-06T19:38:31.413Z,2.31
2023-05-06T19:41:03.437Z,2.16
2023-05-06T19:43:34.907Z,2.14
2023-05-06T19:46:08.042Z,2.13
2023-05-06T19:48:40.236Z,2.11
2023-05-06T19:51:15.310Z,2.09
2023-05-06T19:53:47.499Z,2.06
2023-05-06T19:56:22.176Z,2.05
2023-05-06T20:02:26.289Z,2.03
2023-05-06T20:32:52.193Z,1.74
2023-05-06T20:35:23.989Z,1.61
2023-05-06T20:37:57.958Z,1.59
2023-05-06T20:40:29.504Z,1.56
2023-05-06T20:43:02.627Z,1.52
2023-05-06T20:45:34.296Z,1.48
2023-05-06T20:48:15.336Z,1.46
2023-05-06T20:50:47.374Z,1.44
2023-05-06T20:53:19.481Z,1.40
2023-05-06T20:55:51.577Z,1.37
2023-05-06T20:58:23.200Z,1.36
2023-05-06T21:00:54.742Z,1.31
2023-05-06T21:03:26.813Z,1.29
2023-05-06T21:06:00.028Z,1.27
2023-05-06T21:08:31.359Z,1.26
2023-05-06T21:11:02.962Z,1.21
2023-05-06T21:13:34.372Z,1.17
2023-05-06T21:16:06.553Z,1.16
2023-05-06T21:18:38.110Z,1.13
2023-05-06T21:21:09.893Z,1.11
2023-05-06T21:23:42.458Z,1.10
2023-05-06T21:26:14.002Z,1.06
2023-05-06T21:28:47.274Z,1.04
2023-05-06T21:31:18.735Z,1.01
2023-05-06T21:33:50.363Z,0.96
2023-05-06T21:36:21.942Z,0.95
2023-05-06T21:39:01.656Z,0.92
2023-05-06T21:41:34.887Z,0.90
2023-05-06T21:44:07.274Z,0.87
2023-05-06T21:46:39.135Z,0.85
2023-05-06T21:49:10.834Z,0.80
2023-05-06T21:51:42.678Z,0.78
2023-05-06T21:54:14.587Z,0.75
2023-05-06T21:56:46.550Z,0.71
2023-05-06T21:59:19.831Z,0.69
2023-05-06T22:01:51.649Z,0.65
2023-05-06T22:04:23.171Z,0.63
2023-05-06T22:06:54.698Z,0.61
2023-05-06T22:09:26.196Z,0.58
2023-05-06T22:11:57.897Z,0.54
2023-05-06T22:14:37.382Z,0.52
2023-05-06T22:17:02.605Z,0.53
2023-05-06T22:19:34.796Z,0.51
2023-05-06T22:22:06.650Z,0.49
2023-05-06T22:24:38.232Z,0.49
2023-05-06T22:27:09.938Z,0.47
2023-05-06T22:29:41.652Z,0.43
2023-05-06T22:32:13.323Z,0.43
2023-05-06T22:34:44.788Z,0.39
2023-05-06T22:37:18.389Z,0.35
2023-05-06T22:39:51.020Z,0.31
2023-05-06T22:42:22.449Z,0.29
2023-05-06T22:44:54.050Z,0.27
2023-05-06T22:47:25.543Z,0.25
2023-05-06T22:49:58.545Z,0.25
2023-05-06T22:52:33.089Z,0.22
2023-05-06T22:55:04.835Z,0.20
2023-05-06T22:57:36.379Z,0.18
2023-05-06T23:00:11.007Z,0.15
2023-05-06T23:02:42.667Z,0.11
2023-05-06T23:05:33.376Z,0.09
2023-05-06T23:08:05.021Z,0.07
2023-05-06T23:10:36.548Z,0.05
2023-05-06T23:13:08.410Z,0.02
2023-05-06T23:15:40.091Z,-0.02
2023-05-06T23:18:11.767Z,-0.07
2023-05-06T23:20:45.936Z,-0.08
2023-05-06T23:23:17.447Z,-0.10
2023-05-06T23:25:49.222Z,-0.13
2023-05-06T23:28:21.061Z,-0.15
2023-05-06T23:30:52.856Z,-0.16
2023-05-06T23:36:58.722Z,-0.19
2023-05-06T23:39:30.209Z,-0.27
2023-05-06T23:42:02.357Z,-0.30
2023-05-06T23:44:34.171Z,-0.32
2023-05-06T23:47:05.877Z,-0.33
2023-05-06T23:49:37.378Z,-0.36
2023-05-06T23:52:08.798Z,-0.38
2023-05-06T23:54:40.222Z,-0.38
2023-05-06T23:57:11.724Z,-0.39
2023-05-06T23:59:44.828Z,-0.40
